sensor_id;sensor_type;location;lat;lon;timestamp;pressure;altitude;pressure_sealevel;temperature;humidity
76229;BME280;65021;53.174;18.160;2023-02-02T00:01:59;99836.27;;;3.19;84.69
76229;BME280;65021;53.174;18.160;2023-02-02T00:04:28;99832.95;;;3.21;84.78
76229;BME280;65021;53.174;18.160;2023-02-02T00:06:56;99829.20;;;3.20;84.97
76229;BME280;65021;53.174;18.160;2023-02-02T00:09:25;99828.95;;;3.20;84.89
76229;BME280;65021;53.174;18.160;2023-02-02T00:11:54;99826.59;;;3.20;84.93
76229;BME280;65021;53.174;18.160;2023-02-02T00:14:22;99828.70;;;3.20;85.06
76229;BME280;65021;53.174;18.160;2023-02-02T00:16:50;99823.81;;;3.18;85.42
76229;BME280;65021;53.174;18.160;2023-02-02T00:19:26;99824.20;;;3.18;85.47
76229;BME280;65021;53.174;18.160;2023-02-02T00:21:53;99819.16;;;3.19;85.20
76229;BME280;65021;53.174;18.160;2023-02-02T00:24:21;99818.77;;;3.20;85.19
76229;BME280;65021;53.174;18.160;2023-02-02T00:26:53;99815.94;;;3.20;85.17
76229;BME280;65021;53.174;18.160;2023-02-02T00:29:24;99816.00;;;3.23;85.23
76229;BME280;65021;53.174;18.160;2023-02-02T00:31:51;99814.30;;;3.23;85.11
76229;BME280;65021;53.174;18.160;2023-02-02T00:34:18;99815.29;;;3.22;85.10
76229;BME280;65021;53.174;18.160;2023-02-02T00:36:46;99816.46;;;3.23;85.09
76229;BME280;65021;53.174;18.160;2023-02-02T00:39:16;99816.62;;;3.25;85.08
76229;BME280;65021;53.174;18.160;2023-02-02T00:41:44;99812.95;;;3.25;85.20
76229;BME280;65021;53.174;18.160;2023-02-02T00:44:11;99810.70;;;3.23;85.34
76229;BME280;65021;53.174;18.160;2023-02-02T00:46:56;99815.34;;;3.21;85.45
76229;BME280;65021;53.174;18.160;2023-02-02T00:49:23;99815.55;;;3.22;85.39
76229;BME280;65021;53.174;18.160;2023-02-02T00:51:49;99818.59;;;3.21;85.38
76229;BME280;65021;53.174;18.160;2023-02-02T00:54:16;99815.59;;;3.22;85.34
76229;BME280;65021;53.174;18.160;2023-02-02T00:56:43;99815.20;;;3.23;85.30
76229;BME280;65021;53.174;18.160;2023-02-02T00:59:09;99812.13;;;3.23;85.30
76229;BME280;65021;53.174;18.160;2023-02-02T01:01:36;99812.15;;;3.23;85.14
76229;BME280;65021;53.174;18.160;2023-02-02T01:04:03;99808.18;;;3.24;85.15
76229;BME280;65021;53.174;18.160;2023-02-02T01:06:30;99805.55;;;3.25;85.02
76229;BME280;65021;53.174;18.160;2023-02-02T01:08:56;99798.79;;;3.26;85.02
76229;BME280;65021;53.174;18.160;2023-02-02T01:11:23;99797.19;;;3.26;85.00
76229;BME280;65021;53.174;18.160;2023-02-02T01:13:50;99794.48;;;3.26;84.95
76229;BME280;65021;53.174;18.160;2023-02-02T01:16:17;99785.89;;;3.27;84.91
76229;BME280;65021;53.174;18.160;2023-02-02T01:18:44;99781.76;;;3.26;84.87
76229;BME280;65021;53.174;18.160;2023-02-02T01:21:11;99775.50;;;3.27;84.81
76229;BME280;65021;53.174;18.160;2023-02-02T01:23:38;99772.16;;;3.27;84.77
76229;BME280;65021;53.174;18.160;2023-02-02T01:26:07;99769.63;;;3.27;84.74
76229;BME280;65021;53.174;18.160;2023-02-02T01:28:35;99763.92;;;3.27;84.56
76229;BME280;65021;53.174;18.160;2023-02-02T01:31:11;99757.37;;;3.28;84.66
76229;BME280;65021;53.174;18.160;2023-02-02T01:33:38;99757.06;;;3.29;84.61
76229;BME280;65021;53.174;18.160;2023-02-02T01:36:08;99757.23;;;3.30;84.57
76229;BME280;65021;53.174;18.160;2023-02-02T01:38:35;99755.36;;;3.30;84.57
76229;BME280;65021;53.174;18.160;2023-02-02T01:41:02;99751.14;;;3.31;84.51
76229;BME280;65021;53.174;18.160;2023-02-02T01:48:45;99752.13;;;3.33;84.43
76229;BME280;65021;53.174;18.160;2023-02-02T01:51:16;99745.55;;;3.38;84.37
76229;BME280;65021;53.174;18.160;2023-02-02T01:53:46;99742.52;;;3.41;84.23
76229;BME280;65021;53.174;18.160;2023-02-02T01:56:25;99736.73;;;3.39;84.21
76229;BME280;65021;53.174;18.160;2023-02-02T01:58:52;99743.02;;;3.37;84.31
76229;BME280;65021;53.174;18.160;2023-02-02T02:01:19;99744.52;;;3.35;84.29
76229;BME280;65021;53.174;18.160;2023-02-02T02:03:46;99741.36;;;3.33;84.29
76229;BME280;65021;53.174;18.160;2023-02-02T02:06:16;99740.79;;;3.30;84.18
76229;BME280;65021;53.174;18.160;2023-02-02T02:11:20;99733.35;;;3.26;84.22
76229;BME280;65021;53.174;18.160;2023-02-02T02:13:47;99732.78;;;3.22;84.00
76229;BME280;65021;53.174;18.160;2023-02-02T02:19:54;99716.70;;;3.11;84.10
76229;BME280;65021;53.174;18.160;2023-02-02T02:23:06;99717.83;;;3.03;84.19
76229;BME280;65021;53.174;18.160;2023-02-02T02:36:46;99716.94;;;3.08;84.23
76229;BME280;65021;53.174;18.160;2023-02-02T02:39:23;99709.55;;;3.07;84.30
76229;BME280;65021;53.174;18.160;2023-02-02T02:41:55;99704.24;;;3.05;84.23
76229;BME280;65021;53.174;18.160;2023-02-02T02:44:25;99702.27;;;3.05;84.18
76229;BME280;65021;53.174;18.160;2023-02-02T02:46:53;99693.44;;;3.06;84.23
76229;BME280;65021;53.174;18.160;2023-02-02T02:49:20;99688.60;;;3.08;84.33
76229;BME280;65021;53.174;18.160;2023-02-02T02:51:51;99685.83;;;3.10;84.23
76229;BME280;65021;53.174;18.160;2023-02-02T02:54:28;99682.75;;;3.12;84.31
76229;BME280;65021;53.174;18.160;2023-02-02T03:00:22;99672.63;;;3.09;84.41
76229;BME280;65021;53.174;18.160;2023-02-02T03:03:04;99670.48;;;3.09;84.46
76229;BME280;65021;53.174;18.160;2023-02-02T03:08:34;99664.77;;;3.11;84.41
76229;BME280;65021;53.174;18.160;2023-02-02T03:11:04;99663.69;;;3.12;84.40
76229;BME280;65021;53.174;18.160;2023-02-02T03:13:32;99663.05;;;3.12;84.44
76229;BME280;65021;53.174;18.160;2023-02-02T03:15:58;99659.70;;;3.13;84.52
76229;BME280;65021;53.174;18.160;2023-02-02T03:18:30;99655.85;;;3.12;84.47
76229;BME280;65021;53.174;18.160;2023-02-02T03:20:58;99650.07;;;3.10;84.47
76229;BME280;65021;53.174;18.160;2023-02-02T03:23:25;99647.01;;;3.07;84.53
76229;BME280;65021;53.174;18.160;2023-02-02T03:25:52;99643.50;;;3.04;84.49
76229;BME280;65021;53.174;18.160;2023-02-02T03:28:22;99634.27;;;3.02;84.56
76229;BME280;65021;53.174;18.160;2023-02-02T03:30:50;99633.47;;;3.01;84.56
76229;BME280;65021;53.174;18.160;2023-02-02T03:33:17;99628.01;;;3.02;84.58
76229;BME280;65021;53.174;18.160;2023-02-02T03:35:44;99625.98;;;3.03;84.60
76229;BME280;65021;53.174;18.160;2023-02-02T03:38:11;99624.28;;;3.04;84.66
76229;BME280;65021;53.174;18.160;2023-02-02T03:40:38;99622.92;;;3.04;84.63
76229;BME280;65021;53.174;18.160;2023-02-02T03:43:05;99617.23;;;3.04;84.67
76229;BME280;65021;53.174;18.160;2023-02-02T03:45:32;99619.38;;;3.03;84.80
76229;BME280;65021;53.174;18.160;2023-02-02T03:48:03;99610.01;;;3.02;84.76
76229;BME280;65021;53.174;18.160;2023-02-02T03:50:31;99607.91;;;3.02;84.78
76229;BME280;65021;53.174;18.160;2023-02-02T03:52:57;99609.71;;;2.99;84.82
76229;BME280;65021;53.174;18.160;2023-02-02T03:55:24;99609.39;;;2.97;84.90
76229;BME280;65021;53.174;18.160;2023-02-02T03:57:51;99606.69;;;2.93;84.84
76229;BME280;65021;53.174;18.160;2023-02-02T04:00:17;99608.89;;;2.89;84.83
76229;BME280;65021;53.174;18.160;2023-02-02T04:02:44;99607.53;;;2.90;84.89
76229;BME280;65021;53.174;18.160;2023-02-02T04:05:11;99614.32;;;2.90;85.03
76229;BME280;65021;53.174;18.160;2023-02-02T04:07:37;99606.69;;;2.89;84.82
76229;BME280;65021;53.174;18.160;2023-02-02T04:10:04;99617.91;;;2.89;84.95
76229;BME280;65021;53.174;18.160;2023-02-02T04:12:31;99615.09;;;2.88;84.87
76229;BME280;65021;53.174;18.160;2023-02-02T04:14:57;99616.95;;;2.88;84.93
76229;BME280;65021;53.174;18.160;2023-02-02T04:17:24;99612.67;;;2.89;84.99
76229;BME280;65021;53.174;18.160;2023-02-02T04:19:50;99613.09;;;2.90;85.06
76229;BME280;65021;53.174;18.160;2023-02-02T04:22:24;99611.75;;;2.85;84.98
76229;BME280;65021;53.174;18.160;2023-02-02T04:24:51;99608.68;;;2.78;84.99
76229;BME280;65021;53.174;18.160;2023-02-02T04:27:18;99605.96;;;2.71;84.99
76229;BME280;65021;53.174;18.160;2023-02-02T04:29:44;99611.20;;;2.65;84.95
76229;BME280;65021;53.174;18.160;2023-02-02T04:32:14;99609.31;;;2.63;84.89
76229;BME280;65021;53.174;18.160;2023-02-02T04:34:41;99609.04;;;2.62;84.85
76229;BME280;65021;53.174;18.160;2023-02-02T04:37:09;99606.55;;;2.62;84.85
76229;BME280;65021;53.174;18.160;2023-02-02T04:39:36;99609.41;;;2.61;84.89
76229;BME280;65021;53.174;18.160;2023-02-02T04:42:02;99610.54;;;2.58;84.90
76229;BME280;65021;53.174;18.160;2023-02-02T04:44:29;99613.73;;;2.54;85.02
76229;BME280;65021;53.174;18.160;2023-02-02T04:46:55;99614.68;;;2.46;85.04
76229;BME280;65021;53.174;18.160;2023-02-02T04:49:22;99619.73;;;2.40;85.03
76229;BME280;65021;53.174;18.160;2023-02-02T04:51:49;99624.16;;;2.35;85.16
76229;BME280;65021;53.174;18.160;2023-02-02T04:54:15;99627.10;;;2.33;85.19
76229;BME280;65021;53.174;18.160;2023-02-02T04:56:42;99630.56;;;2.33;85.08
76229;BME280;65021;53.174;18.160;2023-02-02T04:59:09;99633.05;;;2.32;85.04
76229;BME280;65021;53.174;18.160;2023-02-02T05:01:35;99630.33;;;2.31;84.97
76229;BME280;65021;53.174;18.160;2023-02-02T05:04:02;99632.47;;;2.31;84.97
76229;BME280;65021;53.174;18.160;2023-02-02T05:06:28;99633.56;;;2.31;85.05
76229;BME280;65021;53.174;18.160;2023-02-02T05:08:55;99632.15;;;2.27;85.06
76229;BME280;65021;53.174;18.160;2023-02-02T05:11:22;99639.81;;;2.22;85.10
76229;BME280;65021;53.174;18.160;2023-02-02T05:13:53;99637.20;;;2.18;85.11
76229;BME280;65021;53.174;18.160;2023-02-02T05:16:21;99640.91;;;2.16;85.23
76229;BME280;65021;53.174;18.160;2023-02-02T05:18:49;99646.44;;;2.13;85.24
76229;BME280;65021;53.174;18.160;2023-02-02T05:21:16;99653.70;;;2.11;85.21
76229;BME280;65021;53.174;18.160;2023-02-02T05:23:43;99655.52;;;2.09;85.15
76229;BME280;65021;53.174;18.160;2023-02-02T05:26:16;99661.87;;;2.07;85.18
76229;BME280;65021;53.174;18.160;2023-02-02T05:28:43;99669.20;;;2.07;85.19
76229;BME280;65021;53.174;18.160;2023-02-02T05:31:10;99676.02;;;2.09;85.18
76229;BME280;65021;53.174;18.160;2023-02-02T05:33:37;99679.60;;;2.11;85.12
76229;BME280;65021;53.174;18.160;2023-02-02T05:36:04;99683.80;;;2.15;85.09
76229;BME280;65021;53.174;18.160;2023-02-02T05:38:31;99684.54;;;2.17;85.16
76229;BME280;65021;53.174;18.160;2023-02-02T05:40:58;99687.95;;;2.19;85.15
76229;BME280;65021;53.174;18.160;2023-02-02T05:43:29;99688.86;;;2.23;85.20
76229;BME280;65021;53.174;18.160;2023-02-02T05:45:56;99694.88;;;2.24;85.06
76229;BME280;65021;53.174;18.160;2023-02-02T05:48:23;99702.71;;;2.27;85.05
76229;BME280;65021;53.174;18.160;2023-02-02T05:51:05;99709.23;;;2.28;85.13
76229;BME280;65021;53.174;18.160;2023-02-02T05:53:32;99717.58;;;2.29;85.11
76229;BME280;65021;53.174;18.160;2023-02-02T05:55:59;99721.78;;;2.26;85.14
76229;BME280;65021;53.174;18.160;2023-02-02T05:58:25;99731.70;;;2.22;85.33
76229;BME280;65021;53.174;18.160;2023-02-02T06:00:53;99734.81;;;2.16;85.62
76229;BME280;65021;53.174;18.160;2023-02-02T06:03:20;99740.65;;;2.12;85.53
76229;BME280;65021;53.174;18.160;2023-02-02T06:05:46;99740.85;;;2.15;85.46
76229;BME280;65021;53.174;18.160;2023-02-02T06:08:13;99752.58;;;2.16;85.33
76229;BME280;65021;53.174;18.160;2023-02-02T06:10:40;99754.03;;;2.17;85.34
76229;BME280;65021;53.174;18.160;2023-02-02T06:13:08;99766.86;;;2.18;85.33
76229;BME280;65021;53.174;18.160;2023-02-02T06:15:35;99772.92;;;2.20;85.35
76229;BME280;65021;53.174;18.160;2023-02-02T06:18:02;99779.27;;;2.23;85.37
76229;BME280;65021;53.174;18.160;2023-02-02T06:20:28;99787.29;;;2.23;85.44
76229;BME280;65021;53.174;18.160;2023-02-02T06:22:55;99798.17;;;2.20;85.84
76229;BME280;65021;53.174;18.160;2023-02-02T06:25:21;99802.70;;;2.17;86.17
76229;BME280;65021;53.174;18.160;2023-02-02T06:27:48;99813.73;;;2.14;86.36
76229;BME280;65021;53.174;18.160;2023-02-02T06:30:15;99815.06;;;2.14;86.17
76229;BME280;65021;53.174;18.160;2023-02-02T06:32:42;99821.77;;;2.16;86.12
76229;BME280;65021;53.174;18.160;2023-02-02T06:35:08;99830.66;;;2.19;85.91
76229;BME280;65021;53.174;18.160;2023-02-02T06:37:35;99834.33;;;2.18;86.36
76229;BME280;65021;53.174;18.160;2023-02-02T06:40:05;99844.45;;;2.15;86.56
76229;BME280;65021;53.174;18.160;2023-02-02T06:42:33;99850.03;;;2.14;86.50
76229;BME280;65021;53.174;18.160;2023-02-02T06:44:59;99855.55;;;2.12;86.69
76229;BME280;65021;53.174;18.160;2023-02-02T06:47:26;99859.90;;;2.14;86.41
76229;BME280;65021;53.174;18.160;2023-02-02T06:49:52;99869.05;;;2.17;86.49
76229;BME280;65021;53.174;18.160;2023-02-02T06:52:19;99869.84;;;2.19;86.59
76229;BME280;65021;53.174;18.160;2023-02-02T06:54:46;99874.89;;;2.20;86.48
76229;BME280;65021;53.174;18.160;2023-02-02T06:57:12;99877.84;;;2.23;86.62
76229;BME280;65021;53.174;18.160;2023-02-02T06:59:39;99886.10;;;2.24;86.54
76229;BME280;65021;53.174;18.160;2023-02-02T07:02:10;99893.27;;;2.25;86.62
76229;BME280;65021;53.174;18.160;2023-02-02T07:04:38;99901.36;;;2.27;86.74
76229;BME280;65021;53.174;18.160;2023-02-02T07:07:05;99908.91;;;2.30;86.67
76229;BME280;65021;53.174;18.160;2023-02-02T07:09:33;99915.78;;;2.35;86.44
76229;BME280;65021;53.174;18.160;2023-02-02T07:11:59;99916.29;;;2.34;86.63
76229;BME280;65021;53.174;18.160;2023-02-02T07:14:26;99927.27;;;2.33;86.73
76229;BME280;65021;53.174;18.160;2023-02-02T07:16:53;99934.61;;;2.30;86.88
76229;BME280;65021;53.174;18.160;2023-02-02T07:19:19;99937.68;;;2.33;86.69
76229;BME280;65021;53.174;18.160;2023-02-02T07:21:46;99940.95;;;2.40;86.54
76229;BME280;65021;53.174;18.160;2023-02-02T07:24:12;99948.45;;;2.48;86.44
76229;BME280;65021;53.174;18.160;2023-02-02T07:26:39;99952.33;;;2.55;86.40
76229;BME280;65021;53.174;18.160;2023-02-02T07:29:06;99954.31;;;2.65;86.24
76229;BME280;65021;53.174;18.160;2023-02-02T07:31:32;99958.44;;;2.71;86.20
76229;BME280;65021;53.174;18.160;2023-02-02T07:34:01;99960.38;;;2.74;86.22
76229;BME280;65021;53.174;18.160;2023-02-02T07:36:28;99961.17;;;2.80;86.18
76229;BME280;65021;53.174;18.160;2023-02-02T07:38:54;99967.44;;;2.84;86.08
76229;BME280;65021;53.174;18.160;2023-02-02T07:41:23;99972.14;;;2.90;86.00
76229;BME280;65021;53.174;18.160;2023-02-02T07:43:50;99976.35;;;2.93;85.89
76229;BME280;65021;53.174;18.160;2023-02-02T07:46:18;99979.94;;;2.93;86.00
76229;BME280;65021;53.174;18.160;2023-02-02T07:48:45;99985.30;;;2.94;85.96
76229;BME280;65021;53.174;18.160;2023-02-02T07:51:14;99989.98;;;2.99;85.98
76229;BME280;65021;53.174;18.160;2023-02-02T07:53:43;99991.38;;;3.07;85.91
76229;BME280;65021;53.174;18.160;2023-02-02T07:56:16;99995.19;;;3.15;85.84
76229;BME280;65021;53.174;18.160;2023-02-02T07:58:43;100002.60;;;3.22;85.75
76229;BME280;65021;53.174;18.160;2023-02-02T08:01:11;100005.31;;;3.21;85.62
76229;BME280;65021;53.174;18.160;2023-02-02T08:03:39;100007.71;;;3.25;85.63
76229;BME280;65021;53.174;18.160;2023-02-02T08:08:38;100022.68;;;3.32;85.72
76229;BME280;65021;53.174;18.160;2023-02-02T08:11:11;100028.45;;;3.35;85.73
76229;BME280;65021;53.174;18.160;2023-02-02T08:13:40;100037.15;;;3.37;85.60
76229;BME280;65021;53.174;18.160;2023-02-02T08:16:08;100043.43;;;3.40;85.72
76229;BME280;65021;53.174;18.160;2023-02-02T08:18:35;100051.66;;;3.42;85.63
76229;BME280;65021;53.174;18.160;2023-02-02T08:21:03;100052.51;;;3.41;85.66
76229;BME280;65021;53.174;18.160;2023-02-02T08:23:30;100063.10;;;3.42;85.67
76229;BME280;65021;53.174;18.160;2023-02-02T08:26:18;100066.04;;;3.39;85.72
76229;BME280;65021;53.174;18.160;2023-02-02T08:28:48;100069.80;;;3.39;85.74
76229;BME280;65021;53.174;18.160;2023-02-02T08:31:23;100076.70;;;3.41;85.73
76229;BME280;65021;53.174;18.160;2023-02-02T08:33:51;100083.11;;;3.40;85.83
76229;BME280;65021;53.174;18.160;2023-02-02T08:36:21;100084.02;;;3.42;85.73
76229;BME280;65021;53.174;18.160;2023-02-02T08:38:48;100088.55;;;3.45;85.81
76229;BME280;65021;53.174;18.160;2023-02-02T08:41:17;100093.89;;;3.54;85.62
76229;BME280;65021;53.174;18.160;2023-02-02T08:43:45;100104.67;;;3.60;85.57
76229;BME280;65021;53.174;18.160;2023-02-02T08:46:15;100110.56;;;3.69;85.40
76229;BME280;65021;53.174;18.160;2023-02-02T08:48:42;100122.98;;;3.73;85.12
76229;BME280;65021;53.174;18.160;2023-02-02T08:51:11;100133.47;;;3.72;84.82
76229;BME280;65021;53.174;18.160;2023-02-02T08:53:40;100137.02;;;3.71;84.96
76229;BME280;65021;53.174;18.160;2023-02-02T08:56:15;100147.80;;;3.71;84.87
76229;BME280;65021;53.174;18.160;2023-02-02T08:58:50;100160.40;;;3.70;84.20
76229;BME280;65021;53.174;18.160;2023-02-02T09:01:22;100168.98;;;3.82;83.99
76229;BME280;65021;53.174;18.160;2023-02-02T09:03:56;100172.66;;;3.94;83.56
76229;BME280;65021;53.174;18.160;2023-02-02T09:06:39;100182.47;;;4.04;83.35
76229;BME280;65021;53.174;18.160;2023-02-02T09:09:09;100188.61;;;4.18;83.55
76229;BME280;65021;53.174;18.160;2023-02-02T09:11:36;100187.45;;;4.24;83.08
76229;BME280;65021;53.174;18.160;2023-02-02T09:14:03;100193.11;;;4.33;82.78
76229;BME280;65021;53.174;18.160;2023-02-02T09:16:32;100197.71;;;4.36;82.37
76229;BME280;65021;53.174;18.160;2023-02-02T09:18:59;100208.33;;;4.44;82.95
76229;BME280;65021;53.174;18.160;2023-02-02T09:21:26;100217.28;;;4.56;83.15
76229;BME280;65021;53.174;18.160;2023-02-02T09:23:53;100226.25;;;4.57;82.77
76229;BME280;65021;53.174;18.160;2023-02-02T09:26:27;100230.54;;;4.62;82.77
76229;BME280;65021;53.174;18.160;2023-02-02T09:28:57;100239.59;;;4.67;82.13
76229;BME280;65021;53.174;18.160;2023-02-02T09:31:24;100246.80;;;4.71;82.16
76229;BME280;65021;53.174;18.160;2023-02-02T09:33:51;100252.70;;;4.75;82.05
76229;BME280;65021;53.174;18.160;2023-02-02T09:36:21;100266.05;;;4.68;81.55
76229;BME280;65021;53.174;18.160;2023-02-02T09:38:49;100271.02;;;4.56;81.25
76229;BME280;65021;53.174;18.160;2023-02-02T09:58:24;100319.85;;;4.43;80.66
76229;BME280;65021;53.174;18.160;2023-02-02T10:00:59;100329.93;;;4.52;80.40
76229;BME280;65021;53.174;18.160;2023-02-02T10:03:36;100339.61;;;4.52;79.43
76229;BME280;65021;53.174;18.160;2023-02-02T10:14:22;100365.13;;;4.59;79.70
76229;BME280;65021;53.174;18.160;2023-02-02T10:16:54;100370.87;;;4.63;79.85
76229;BME280;65021;53.174;18.160;2023-02-02T10:19:23;100367.16;;;4.70;79.51
76229;BME280;65021;53.174;18.160;2023-02-02T10:22:10;100370.87;;;4.74;79.19
76229;BME280;65021;53.174;18.160;2023-02-02T10:24:38;100375.45;;;4.74;78.76
76229;BME280;65021;53.174;18.160;2023-02-02T10:27:12;100375.31;;;4.75;78.81
76229;BME280;65021;53.174;18.160;2023-02-02T10:29:52;100382.75;;;4.77;79.08
76229;BME280;65021;53.174;18.160;2023-02-02T10:32:26;100392.98;;;4.76;78.15
76229;BME280;65021;53.174;18.160;2023-02-02T10:37:47;100398.92;;;4.91;78.29
76229;BME280;65021;53.174;18.160;2023-02-02T10:45:47;100401.02;;;5.23;77.90
76229;BME280;65021;53.174;18.160;2023-02-02T10:48:18;100406.73;;;5.35;77.35
76229;BME280;65021;53.174;18.160;2023-02-02T10:50:51;100418.38;;;5.32;75.25
76229;BME280;65021;53.174;18.160;2023-02-02T10:53:19;100429.83;;;5.38;76.58
76229;BME280;65021;53.174;18.160;2023-02-02T10:56:05;100436.94;;;5.26;74.06
76229;BME280;65021;53.174;18.160;2023-02-02T11:01:21;100444.45;;;5.06;73.27
76229;BME280;65021;53.174;18.160;2023-02-02T11:03:48;100449.48;;;5.08;74.36
76229;BME280;65021;53.174;18.160;2023-02-02T11:06:35;100460.63;;;5.18;75.31
76229;BME280;65021;53.174;18.160;2023-02-02T11:09:20;100463.56;;;5.32;75.71
76229;BME280;65021;53.174;18.160;2023-02-02T11:11:54;100459.84;;;5.40;75.34
76229;BME280;65021;53.174;18.160;2023-02-02T11:14:35;100461.23;;;5.33;72.16
76229;BME280;65021;53.174;18.160;2023-02-02T11:17:05;100465.27;;;5.38;73.07
76229;BME280;65021;53.174;18.160;2023-02-02T11:19:33;100465.42;;;5.35;72.15
76229;BME280;65021;53.174;18.160;2023-02-02T11:22:02;100469.91;;;5.27;71.17
76229;BME280;65021;53.174;18.160;2023-02-02T11:24:34;100473.63;;;5.21;71.55
76229;BME280;65021;53.174;18.160;2023-02-02T11:29:57;100469.25;;;5.32;72.17
76229;BME280;65021;53.174;18.160;2023-02-02T11:32:31;100468.23;;;5.38;73.26
76229;BME280;65021;53.174;18.160;2023-02-02T11:37:28;100473.52;;;5.57;72.26
76229;BME280;65021;53.174;18.160;2023-02-02T11:42:59;100487.88;;;5.68;73.51
76229;BME280;65021;53.174;18.160;2023-02-02T11:45:38;100493.33;;;5.81;73.90
76229;BME280;65021;53.174;18.160;2023-02-02T11:48:18;100496.84;;;5.90;73.22
76229;BME280;65021;53.174;18.160;2023-02-02T11:51:06;100502.14;;;5.80;70.28
76229;BME280;65021;53.174;18.160;2023-02-02T11:56:05;100511.13;;;5.58;72.17
76229;BME280;65021;53.174;18.160;2023-02-02T11:58:45;100513.42;;;5.50;73.14
76229;BME280;65021;53.174;18.160;2023-02-02T12:03:51;100531.88;;;5.39;71.46
76229;BME280;65021;53.174;18.160;2023-02-02T12:06:23;100527.74;;;5.24;71.19
76229;BME280;65021;53.174;18.160;2023-02-02T12:08:57;100537.60;;;5.15;72.06
76229;BME280;65021;53.174;18.160;2023-02-02T12:11:36;100544.11;;;5.08;72.67
76229;BME280;65021;53.174;18.160;2023-02-02T12:14:30;100548.96;;;5.00;72.63
76229;BME280;65021;53.174;18.160;2023-02-02T12:22:36;100557.36;;;5.06;73.64
76229;BME280;65021;53.174;18.160;2023-02-02T12:28:10;100572.61;;;4.98;72.16
76229;BME280;65021;53.174;18.160;2023-02-02T12:33:38;100583.36;;;5.06;73.13
76229;BME280;65021;53.174;18.160;2023-02-02T12:36:40;100590.31;;;5.03;70.00
76229;BME280;65021;53.174;18.160;2023-02-02T12:39:31;100592.23;;;5.02;69.20
76229;BME280;65021;53.174;18.160;2023-02-02T12:47:30;100587.98;;;5.05;69.16
76229;BME280;65021;53.174;18.160;2023-02-02T12:58:41;100612.73;;;4.97;69.46
76229;BME280;65021;53.174;18.160;2023-02-02T13:09:46;100633.44;;;5.10;67.97
76229;BME280;65021;53.174;18.160;2023-02-02T13:12:19;100633.39;;;5.12;65.45
76229;BME280;65021;53.174;18.160;2023-02-02T13:14:52;100643.74;;;5.12;64.86
76229;BME280;65021;53.174;18.160;2023-02-02T13:20:01;100653.64;;;4.93;63.48
76229;BME280;65021;53.174;18.160;2023-02-02T13:22:34;100659.81;;;4.83;63.02
76229;BME280;65021;53.174;18.160;2023-02-02T13:25:05;100663.08;;;4.79;64.23
76229;BME280;65021;53.174;18.160;2023-02-02T13:27:35;100675.14;;;4.62;62.91
76229;BME280;65021;53.174;18.160;2023-02-02T13:30:12;100675.64;;;4.56;64.12
76229;BME280;65021;53.174;18.160;2023-02-02T13:32:42;100679.67;;;4.46;64.31
76229;BME280;65021;53.174;18.160;2023-02-02T13:35:16;100680.90;;;4.36;63.74
76229;BME280;65021;53.174;18.160;2023-02-02T13:37:53;100692.73;;;4.29;63.59
76229;BME280;65021;53.174;18.160;2023-02-02T13:40:37;100697.63;;;4.25;64.48
76229;BME280;65021;53.174;18.160;2023-02-02T13:46:14;100706.48;;;4.20;65.34
76229;BME280;65021;53.174;18.160;2023-02-02T13:48:51;100711.02;;;4.16;66.16
76229;BME280;65021;53.174;18.160;2023-02-02T14:02:42;100736.04;;;4.11;65.44
76229;BME280;65021;53.174;18.160;2023-02-02T14:08:19;100747.84;;;3.92;66.07
76229;BME280;65021;53.174;18.160;2023-02-02T14:13:23;100766.35;;;3.69;65.81
76229;BME280;65021;53.174;18.160;2023-02-02T14:16:21;100773.48;;;3.62;65.45
76229;BME280;65021;53.174;18.160;2023-02-02T14:26:43;100800.45;;;3.64;66.41
76229;BME280;65021;53.174;18.160;2023-02-02T14:34:45;100830.19;;;3.54;66.06
76229;BME280;65021;53.174;18.160;2023-02-02T14:48:42;100880.50;;;3.42;67.25
76229;BME280;65021;53.174;18.160;2023-02-02T14:51:23;100884.35;;;3.38;67.45
76229;BME280;65021;53.174;18.160;2023-02-02T14:53:53;100902.98;;;3.34;67.27
76229;BME280;65021;53.174;18.160;2023-02-02T14:59:04;100923.11;;;3.27;67.96
76229;BME280;65021;53.174;18.160;2023-02-02T15:01:34;100934.79;;;3.23;68.23
76229;BME280;65021;53.174;18.160;2023-02-02T15:06:48;100944.20;;;3.14;68.61
76229;BME280;65021;53.174;18.160;2023-02-02T15:22:53;100996.52;;;2.84;69.89
76229;BME280;65021;53.174;18.160;2023-02-02T15:25:48;100995.58;;;2.79;70.21
76229;BME280;65021;53.174;18.160;2023-02-02T15:28:25;101007.20;;;2.68;70.42
76229;BME280;65021;53.174;18.160;2023-02-02T15:31:18;101015.83;;;2.57;70.47
76229;BME280;65021;53.174;18.160;2023-02-02T15:33:50;101027.35;;;2.44;71.18
76229;BME280;65021;53.174;18.160;2023-02-02T15:36:24;101027.38;;;2.38;71.29
76229;BME280;65021;53.174;18.160;2023-02-02T15:38:54;101039.20;;;2.32;71.74
76229;BME280;65021;53.174;18.160;2023-02-02T15:41:24;101046.99;;;2.30;72.14
76229;BME280;65021;53.174;18.160;2023-02-02T15:43:52;101057.13;;;2.25;72.71
76229;BME280;65021;53.174;18.160;2023-02-02T15:46:23;101063.39;;;2.19;73.52
76229;BME280;65021;53.174;18.160;2023-02-02T15:51:42;101080.02;;;2.08;73.58
76229;BME280;65021;53.174;18.160;2023-02-02T15:54:28;101083.88;;;2.08;73.51
76229;BME280;65021;53.174;18.160;2023-02-02T15:56:57;101091.09;;;2.01;74.06
76229;BME280;65021;53.174;18.160;2023-02-02T15:59:27;101096.96;;;1.93;74.82
76229;BME280;65021;53.174;18.160;2023-02-02T16:04:38;101116.82;;;1.84;74.38
76229;BME280;65021;53.174;18.160;2023-02-02T16:07:13;101120.90;;;1.86;74.17
76229;BME280;65021;53.174;18.160;2023-02-02T16:09:41;101127.19;;;1.86;74.91
76229;BME280;65021;53.174;18.160;2023-02-02T16:12:19;101134.63;;;1.87;74.61
76229;BME280;65021;53.174;18.160;2023-02-02T16:14:49;101141.66;;;1.85;74.45
76229;BME280;65021;53.174;18.160;2023-02-02T16:17:21;101152.48;;;1.86;74.53
76229;BME280;65021;53.174;18.160;2023-02-02T16:19:49;101159.30;;;1.87;74.87